Pagrindinis puslapis
METAR-TAF:

METAR-TAF

Oro uostai :

Teterboro, Naujasis Džersis, Jungtinės Amerikos Valstijos

platuma: 40-51-32N, ilguma: 074-03-24W, Aukštis: 2 m

Dabartinis oras

Ataskaita buvo paskelbta 11 minutes, ne 06:51 UTC
Vėjas 13 kt iš Vakarų/Pietvakarių su gūsio iki 20 kt
Temperatūra -1°C
Drėgmė 46%
Slėgis 1010 hPa
Matomumas: 16.1 km
Su prošvaistėmis ne aukštis 5500 ft

METAR: KTEB 280651Z 25013G20KT 10SM BKN055 M01/M11 A2982 RMK AO2 SLP099 T10111111

Laikas: 02:02 (07:02 UTC)

Prognozė

Ataskaita buvo paskelbta 1 valandą ir 23 minutes, ne 05:39 UTC
Prognozė galioja nuo 28 metu 06 UTC su 29 metu 12 UTC
Vėjas 14 kt iš Vakarų/Pietvakarių su gūsio iki 25 kt
Matomumas: 10 km
Mažai debesys ne aukštis 5000 ft
Nuo 28 metu 0700 UTC
Vėjas 12 kt iš Vakarų/Pietvakarių su gūsio iki 22 kt
Matomumas: 10 km
Mažai debesys ne aukštis 5000 ft
Nuo 29 metu 0300 UTC
Vėjas 10 kt iš Vakarų/Pietvakarių
Matomumas: 10 km
Mažai debesys ne aukštis 5000 ft

TAF: KTEB 280539Z 2806/2912 25014G25KT P6SM FEW050 FM280700 25012G22KT P6SM FEW050 FM290300 25010KT P6SM FEW050

Orai ataskaitas ir orų prognozės (METAR, TAF).

turimą stotys yra geltonos ir raudonos taškus žemėlapyje.

Perkelti pele per norėdami pamatyti stoties vardą.

Tada spustelėkite, norėdami matyti oro stebėjimo ir prognozės.

Norėdami pakeisti žemėlapį: spustelėkite ant žalios mygtukų su juodo kryžiaus žemyn,; žalią mygtuką su brūkšneliu, jei norite nutolinti; arba žalių rodyklių gretimoms žemėlapius.


METAR-TAF: